Time;durP1;ratioP1;P1;durP2;ratioP2;P2;SDS_P1;SDS_P2;PMS_P1;PMS_P2;Temp;Humidity;BMP_temperature;BMP_pressure;BME280_temperature;BME280_humidity;BME280_pressure;Samples;Min_cycle;Max_cycle;Signal;HPM_P1;HPM_P2
2023/10/25 00:02:16;;;;;;;8.05;1.83;;;17.50;99.90;;;;;;5111027;28;20554;-63
2023/10/25 00:04:41;;;;;;;7.45;1.70;;;17.70;99.90;;;;;;5110659;28;20019;-63
2023/10/25 00:07:08;;;;;;;7.22;1.75;;;17.80;99.90;;;;;;5109424;28;20051;-63
2023/10/25 00:09:33;;;;;;;4.65;1.60;;;17.90;99.90;;;;;;5110941;28;20018;-63
2023/10/25 00:11:59;;;;;;;5.53;1.80;;;18.00;99.90;;;;;;5110424;28;20103;-63
2023/10/25 00:14:25;;;;;;;6.05;2.30;;;17.90;99.90;;;;;;5110244;28;20062;-63
2023/10/25 00:16:51;;;;;;;7.15;2.03;;;18.00;99.90;;;;;;5110472;28;20027;-63
2023/10/25 00:19:17;;;;;;;8.43;2.22;;;18.00;99.90;;;;;;5110843;28;20469;-63
2023/10/25 00:21:42;;;;;;;4.82;1.80;;;18.10;99.90;;;;;;5110689;28;20066;-63
2023/10/25 00:24:08;;;;;;;10.10;2.20;;;18.10;99.90;;;;;;5110577;28;20024;-64
2023/10/25 00:26:34;;;;;;;7.47;1.90;;;18.10;99.90;;;;;;5110404;28;20106;-63
2023/10/25 00:28:59;;;;;;;7.30;2.08;;;18.20;99.90;;;;;;5062771;28;1349586;-63
2023/10/25 00:31:25;;;;;;;8.55;2.03;;;18.30;99.90;;;;;;5111676;28;20070;-63
2023/10/25 00:33:51;;;;;;;7.68;2.10;;;18.10;99.90;;;;;;5111188;28;20031;-63
2023/10/25 00:36:17;;;;;;;7.10;1.70;;;18.00;99.90;;;;;;5111290;28;20213;-62
2023/10/25 00:38:43;;;;;;;8.40;2.22;;;17.90;99.90;;;;;;5111120;28;20545;-63
2023/10/25 00:41:09;;;;;;;7.90;2.13;;;17.80;99.90;;;;;;5111088;28;20072;-63
2023/10/25 00:43:35;;;;;;;7.80;2.30;;;17.70;99.90;;;;;;5111186;28;20043;-63
2023/10/25 00:46:05;;;;;;;13.55;2.17;;;17.60;99.90;;;;;;5111134;28;20020;-63
2023/10/25 00:48:31;;;;;;;9.00;2.20;;;17.50;99.90;;;;;;5111073;28;20024;-63
2023/10/25 00:50:58;;;;;;;7.40;2.40;;;17.40;99.90;;;;;;5111146;28;20023;-64
2023/10/25 00:53:25;;;;;;;10.43;2.55;;;17.40;99.90;;;;;;5111110;28;20470;-63
2023/10/25 00:55:56;;;;;;;11.52;2.50;;;17.30;99.90;;;;;;5111467;28;20024;-63
2023/10/25 00:58:23;;;;;;;10.05;2.42;;;17.30;99.90;;;;;;5110533;28;20064;-63
2023/10/25 01:00:50;;;;;;;10.20;2.28;;;17.10;99.90;;;;;;5110931;28;20023;-63
2023/10/25 01:03:16;;;;;;;9.30;2.20;;;17.10;99.90;;;;;;5110998;28;20478;-63
2023/10/25 01:05:43;;;;;;;6.80;1.88;;;17.00;99.90;;;;;;5111104;28;20089;-63
2023/10/25 01:08:09;;;;;;;8.52;2.20;;;17.00;99.90;;;;;;5111020;28;20069;-63
2023/10/25 01:10:35;;;;;;;8.90;2.53;;;17.00;99.90;;;;;;5110929;28;20023;-63
2023/10/25 01:13:01;;;;;;;10.48;2.20;;;17.00;99.90;;;;;;5110581;28;20039;-63
2023/10/25 01:15:27;;;;;;;9.18;2.20;;;16.90;99.90;;;;;;5110770;28;20031;-63
2023/10/25 01:17:53;;;;;;;12.05;2.75;;;16.90;99.90;;;;;;5111370;28;20047;-63
2023/10/25 01:20:19;;;;;;;10.82;2.40;;;16.90;99.90;;;;;;5114321;28;20024;-63
2023/10/25 01:22:48;;;;;;;9.05;2.10;;;16.90;99.90;;;;;;5114428;28;20102;-63
2023/10/25 01:25:14;;;;;;;8.88;2.20;;;16.80;99.90;;;;;;5114534;28;20019;-64
2023/10/25 01:27:40;;;;;;;8.18;2.10;;;16.90;99.90;;;;;;5113947;28;20020;-63
2023/10/25 01:30:07;;;;;;;8.70;2.35;;;16.80;99.90;;;;;;5114164;28;20050;-63
2023/10/25 01:32:32;;;;;;;9.77;2.17;;;16.80;99.90;;;;;;5114449;28;20093;-63
2023/10/25 01:34:58;;;;;;;7.55;2.22;;;17.00;99.90;;;;;;5114582;28;20023;-64
2023/10/25 01:37:23;;;;;;;9.52;2.47;;;17.20;99.90;;;;;;5114148;28;20019;-63
2023/10/25 01:39:49;;;;;;;10.68;2.45;;;17.30;99.90;;;;;;5113998;28;20039;-63
2023/10/25 01:42:15;;;;;;;6.82;2.00;;;17.30;99.90;;;;;;5113882;28;20497;-63
2023/10/25 01:44:40;;;;;;;9.40;2.35;;;17.40;99.90;;;;;;5114386;28;20474;-63
2023/10/25 01:47:06;;;;;;;6.30;2.35;;;17.50;99.90;;;;;;5113642;28;20019;-63
2023/10/25 01:49:32;;;;;;;9.15;2.40;;;17.40;99.90;;;;;;5113874;28;20102;-63
2023/10/25 01:51:57;;;;;;;8.13;2.45;;;17.40;99.90;;;;;;5114268;28;20022;-63
2023/10/25 01:54:23;;;;;;;9.00;2.03;;;17.40;99.90;;;;;;5114175;28;20509;-64
2023/10/25 01:56:49;;;;;;;8.32;2.40;;;17.30;99.90;;;;;;5113694;28;20085;-64
2023/10/25 01:59:15;;;;;;;8.20;2.00;;;17.30;99.90;;;;;;5113419;28;20039;-64
2023/10/25 02:01:40;;;;;;;13.20;2.60;;;17.40;99.90;;;;;;5114081;28;20035;-63
2023/10/25 02:04:07;;;;;;;10.15;2.38;;;17.40;99.90;;;;;;5113832;28;20055;-63
2023/10/25 02:06:33;;;;;;;13.70;2.90;;;17.50;99.90;;;;;;5113430;28;20019;-63
2023/10/25 02:08:58;;;;;;;11.57;2.72;;;17.30;99.90;;;;;;5113198;28;20039;-63
2023/10/25 02:11:24;;;;;;;11.52;2.60;;;17.20;99.90;;;;;;5113593;28;20026;-63
2023/10/25 02:13:50;;;;;;;14.98;3.30;;;17.00;99.90;;;;;;5113748;28;20116;-63
2023/10/25 02:16:17;;;;;;;14.13;2.80;;;16.90;99.90;;;;;;5113549;28;20036;-65
2023/10/25 02:18:43;;;;;;;16.58;3.80;;;16.90;99.90;;;;;;5113414;28;20096;-63
2023/10/25 02:21:12;;;;;;;17.08;3.08;;;16.80;99.90;;;;;;5094869;28;20031;-63
2023/10/25 02:23:38;;;;;;;13.38;2.92;;;16.70;99.90;;;;;;5094781;28;20042;-63
2023/10/25 02:26:04;;;;;;;12.70;2.67;;;16.60;99.90;;;;;;5113223;28;20032;-63
2023/10/25 02:28:30;;;;;;;13.48;3.33;;;16.60;99.90;;;;;;5112837;28;20051;-63
2023/10/25 02:30:55;;;;;;;12.80;2.80;;;16.60;99.90;;;;;;5112272;28;20044;-62
2023/10/25 02:33:21;;;;;;;11.38;2.80;;;16.50;99.90;;;;;;5113058;28;20032;-63
2023/10/25 02:35:47;;;;;;;12.68;2.78;;;16.50;99.90;;;;;;5112929;28;20024;-63
2023/10/25 02:38:12;;;;;;;12.45;3.05;;;16.50;99.90;;;;;;5112736;28;20481;-63
2023/10/25 02:40:38;;;;;;;15.85;3.42;;;16.50;99.90;;;;;;5112734;28;20443;-63
2023/10/25 02:43:04;;;;;;;15.48;3.28;;;16.50;99.90;;;;;;5112795;28;20051;-63
2023/10/25 02:45:30;;;;;;;15.27;3.17;;;16.40;99.90;;;;;;5112820;28;20474;-63
2023/10/25 02:47:57;;;;;;;9.60;2.72;;;16.40;99.90;;;;;;5112710;28;20016;-63
2023/10/25 02:50:22;;;;;;;13.82;2.97;;;16.40;99.90;;;;;;5094666;28;20114;-63
2023/10/25 02:52:48;;;;;;;11.88;2.78;;;16.40;99.90;;;;;;5112456;28;20099;-63
2023/10/25 02:55:15;;;;;;;9.90;2.55;;;16.40;99.90;;;;;;5112999;28;20035;-63
2023/10/25 02:57:41;;;;;;;10.05;2.88;;;16.50;99.90;;;;;;5112640;28;20105;-63
2023/10/25 03:00:10;;;;;;;12.65;2.60;;;16.40;99.90;;;;;;5112587;28;20028;-64
2023/10/25 03:02:36;;;;;;;13.50;2.80;;;16.40;99.90;;;;;;5112503;28;20035;-63
2023/10/25 03:05:03;;;;;;;10.13;2.78;;;16.40;99.90;;;;;;5112350;28;20111;-63
2023/10/25 03:07:28;;;;;;;12.73;3.45;;;16.30;99.90;;;;;;5112254;28;20035;-63
2023/10/25 03:09:54;;;;;;;12.00;3.00;;;16.50;99.90;;;;;;5112529;28;20027;-63
2023/10/25 03:12:20;;;;;;;15.63;3.30;;;16.70;99.90;;;;;;5112421;28;20026;-63
2023/10/25 03:14:45;;;;;;;10.02;3.15;;;16.90;99.90;;;;;;5112363;28;20485;-62
2023/10/25 03:17:11;;;;;;;8.32;2.88;;;16.90;99.90;;;;;;5112253;28;20031;-64
2023/10/25 03:19:36;;;;;;;12.20;3.42;;;17.10;99.90;;;;;;5112423;28;20032;-62
2023/10/25 03:22:03;;;;;;;14.10;4.07;;;17.00;99.90;;;;;;5111843;28;20463;-63
2023/10/25 03:24:29;;;;;;;17.42;4.10;;;17.10;99.90;;;;;;5111883;28;20485;-63
2023/10/25 03:26:55;;;;;;;16.45;3.72;;;17.00;99.90;;;;;;5111990;28;20024;-63
2023/10/25 03:29:21;;;;;;;18.58;4.28;;;17.00;99.90;;;;;;5111994;28;20121;-63
2023/10/25 03:31:47;;;;;;;12.98;3.15;;;17.00;99.90;;;;;;5111742;28;20036;-63
2023/10/25 03:34:14;;;;;;;13.07;3.00;;;17.10;99.90;;;;;;5111935;28;20020;-63
2023/10/25 03:36:40;;;;;;;11.85;3.40;;;17.10;99.90;;;;;;5111958;28;20497;-63
2023/10/25 03:39:06;;;;;;;15.48;3.70;;;17.20;99.90;;;;;;5111787;28;20047;-62
2023/10/25 03:41:32;;;;;;;17.88;4.15;;;17.20;99.90;;;;;;5111666;28;20020;-63
2023/10/25 03:43:58;;;;;;;20.85;4.60;;;17.20;99.90;;;;;;5111940;28;20486;-63
2023/10/25 03:46:24;;;;;;;28.10;5.50;;;17.00;99.90;;;;;;5111771;28;20047;-63
2023/10/25 03:48:49;;;;;;;23.45;5.63;;;16.90;99.90;;;;;;5111982;28;20445;-63
2023/10/25 03:51:15;;;;;;;25.83;5.75;;;16.90;99.90;;;;;;5111503;28;20024;-62
2023/10/25 03:53:41;;;;;;;28.75;6.22;;;16.80;99.90;;;;;;5111884;28;20059;-63
2023/10/25 03:56:06;;;;;;;26.63;6.25;;;16.80;99.90;;;;;;5111743;28;20036;-63
2023/10/25 03:58:33;;;;;;;29.13;6.38;;;16.80;99.90;;;;;;5111934;28;20031;-63
2023/10/25 04:01:08;;;;;;;38.00;7.00;;;16.70;99.90;;;;;;5111557;28;20028;-63
2023/10/25 04:03:34;;;;;;;28.13;6.55;;;16.70;99.90;;;;;;5111398;28;20444;-63
2023/10/25 04:06:00;;;;;;;30.40;6.97;;;16.70;99.90;;;;;;5111540;28;20065;-63
2023/10/25 04:08:25;;;;;;;26.95;6.65;;;16.80;99.90;;;;;;5111259;28;20039;-63
2023/10/25 04:10:56;;;;;;;33.30;7.25;;;16.70;99.90;;;;;;5111557;28;20030;-63
2023/10/25 04:13:22;;;;;;;28.13;6.85;;;16.70;99.90;;;;;;5111799;28;20367;-63
2023/10/25 04:15:56;;;;;;;30.40;7.63;;;16.70;99.90;;;;;;5111013;28;20039;-63
2023/10/25 04:18:23;;;;;;;30.80;6.70;;;16.80;99.90;;;;;;5111278;28;20574;-63
2023/10/25 04:20:49;;;;;;;33.67;7.35;;;16.80;99.90;;;;;;5111056;28;20512;-62
2023/10/25 04:23:14;;;;;;;32.03;7.35;;;16.80;99.90;;;;;;5111521;28;20028;-63
2023/10/25 04:25:40;;;;;;;33.13;7.45;;;16.80;99.90;;;;;;5111182;28;20051;-62
2023/10/25 04:28:06;;;;;;;31.88;7.45;;;16.70;99.90;;;;;;5111214;28;20050;-63
2023/10/25 04:30:35;;;;;;;38.40;8.15;;;16.80;99.90;;;;;;5111634;28;20371;-63
2023/10/25 04:33:01;;;;;;;32.83;7.10;;;16.80;99.90;;;;;;5110659;28;20031;-63
2023/10/25 04:35:27;;;;;;;33.85;7.65;;;16.80;99.90;;;;;;5110972;28;20371;-63
2023/10/25 04:37:55;;;;;;;29.17;7.03;;;16.80;99.90;;;;;;5111157;28;20065;-62
2023/10/25 04:40:21;;;;;;;35.53;7.70;;;16.80;99.90;;;;;;5111145;28;20028;-63
2023/10/25 04:42:48;;;;;;;32.42;7.72;;;16.80;99.90;;;;;;5111271;28;20024;-63
2023/10/25 04:45:14;;;;;;;32.45;7.75;;;16.80;99.90;;;;;;5093306;28;20020;-63
2023/10/25 04:47:41;;;;;;;29.27;7.00;;;17.00;99.90;;;;;;5110916;28;20031;-62
2023/10/25 04:50:07;;;;;;;35.33;8.45;;;17.20;99.90;;;;;;5111170;28;20483;-63
2023/10/25 04:52:32;;;;;;;30.55;6.90;;;17.40;99.90;;;;;;5111135;28;20088;-63
2023/10/25 04:54:58;;;;;;;33.65;8.18;;;17.50;99.90;;;;;;5114916;28;20516;-63
2023/10/25 04:57:24;;;;;;;27.58;7.25;;;17.50;99.90;;;;;;5114972;28;20102;-63
2023/10/25 04:59:50;;;;;;;30.85;7.85;;;17.50;99.90;;;;;;5114944;28;20037;-63
2023/10/25 05:02:16;;;;;;;28.55;6.82;;;17.60;99.90;;;;;;5115170;28;20024;-63
2023/10/25 05:04:42;;;;;;;27.23;7.05;;;17.60;99.90;;;;;;5114070;28;20503;-63
2023/10/25 05:07:08;;;;;;;29.70;7.07;;;17.70;99.90;;;;;;5115254;28;20031;-63
2023/10/25 05:09:34;;;;;;;27.00;7.10;;;17.70;99.90;;;;;;5114920;28;20058;-63
2023/10/25 05:12:07;;;;;;;33.70;7.40;;;17.70;99.90;;;;;;5114679;28;20023;-63
2023/10/25 05:14:36;;;;;;;28.13;6.68;;;17.80;99.90;;;;;;5114456;28;20023;-62
2023/10/25 05:17:02;;;;;;;26.80;6.65;;;17.90;99.90;;;;;;5114229;28;20030;-64
2023/10/25 05:19:28;;;;;;;18.35;4.78;;;17.80;99.90;;;;;;5114220;28;20481;-64
2023/10/25 05:21:55;;;;;;;17.35;4.40;;;17.30;99.90;;;;;;5114287;28;20084;-63
2023/10/25 05:24:22;;;;;;;15.57;4.15;;;16.90;99.90;;;;;;5114686;28;20085;-63
2023/10/25 05:26:48;;;;;;;20.65;4.13;;;16.70;99.90;;;;;;5114522;28;20019;-63
2023/10/25 05:29:14;;;;;;;15.88;4.00;;;16.50;99.90;;;;;;5114445;28;20569;-63
2023/10/25 05:31:43;;;;;;;14.02;3.20;;;16.30;99.90;;;;;;5114183;28;20398;-63
2023/10/25 05:34:10;;;;;;;12.10;3.67;;;16.30;99.90;;;;;;5113729;28;20027;-63
2023/10/25 05:36:36;;;;;;;14.77;3.60;;;16.30;99.90;;;;;;5114144;28;20031;-63
2023/10/25 05:39:04;;;;;;;17.75;3.85;;;16.20;99.90;;;;;;5113934;28;20383;-63
2023/10/25 05:41:38;;;;;;;16.27;4.50;;;16.20;99.90;;;;;;5114119;28;20015;-63
2023/10/25 05:44:09;;;;;;;15.15;3.92;;;16.20;99.90;;;;;;5114045;28;20031;-63
2023/10/25 05:46:35;;;;;;;20.50;4.78;;;16.30;99.90;;;;;;5113892;28;20451;-62
2023/10/25 05:49:01;;;;;;;21.30;5.38;;;16.30;99.90;;;;;;5113916;28;20023;-63
2023/10/25 05:51:27;;;;;;;28.08;6.05;;;16.30;99.90;;;;;;5113781;28;20493;-64
2023/10/25 05:53:53;;;;;;;24.95;6.70;;;16.30;99.90;;;;;;5113735;28;20524;-63
2023/10/25 05:56:24;;;;;;;23.27;5.30;;;16.40;99.90;;;;;;5114201;28;20051;-63
2023/10/25 05:58:49;;;;;;;29.33;6.90;;;16.40;99.90;;;;;;5112856;28;20074;-63
2023/10/25 06:01:18;;;;;;;27.67;6.18;;;16.40;99.90;;;;;;5112811;28;20043;-63
2023/10/25 06:03:46;;;;;;;32.28;6.85;;;16.40;99.90;;;;;;5113348;28;20039;-64
2023/10/25 06:06:13;;;;;;;28.15;6.80;;;16.50;99.90;;;;;;5113857;28;20097;-64
2023/10/25 06:08:39;;;;;;;26.95;6.60;;;16.50;99.90;;;;;;5113572;28;20023;-63
2023/10/25 06:11:05;;;;;;;28.88;7.50;;;16.50;99.90;;;;;;5113426;28;20069;-64
2023/10/25 06:13:31;;;;;;;27.58;6.93;;;16.50;99.90;;;;;;5113869;28;20027;-63
2023/10/25 06:15:57;;;;;;;32.67;7.68;;;16.60;99.90;;;;;;5113102;28;20019;-63
2023/10/25 06:18:23;;;;;;;29.55;6.78;;;16.50;99.90;;;;;;5113318;28;20054;-64
2023/10/25 06:20:48;;;;;;;31.00;6.70;;;16.60;99.90;;;;;;5113266;28;20023;-64
2023/10/25 06:23:14;;;;;;;34.28;7.03;;;16.60;99.90;;;;;;5113114;28;20054;-64
2023/10/25 06:25:40;;;;;;;27.38;6.38;;;16.80;99.90;;;;;;5113093;28;20099;-64
2023/10/25 06:28:07;;;;;;;30.85;7.32;;;16.90;99.90;;;;;;5113185;28;20043;-64
2023/10/25 06:30:33;;;;;;;32.67;7.30;;;17.00;99.90;;;;;;5112854;28;20401;-64
2023/10/25 06:32:59;;;;;;;31.00;7.10;;;17.10;99.90;;;;;;5112752;28;20027;-62
2023/10/25 06:35:25;;;;;;;29.15;7.50;;;17.20;99.90;;;;;;5113164;28;20023;-64
2023/10/25 06:37:51;;;;;;;27.27;6.72;;;17.20;99.90;;;;;;5113128;28;20038;-63
2023/10/25 06:40:17;;;;;;;26.33;6.57;;;17.50;99.90;;;;;;5113089;28;20043;-63
2023/10/25 06:42:43;;;;;;;29.08;6.65;;;17.50;99.90;;;;;;5113047;28;20081;-63
2023/10/25 06:45:13;;;;;;;24.63;5.57;;;17.40;99.90;;;;;;5112569;28;20447;-64
2023/10/25 06:47:41;;;;;;;22.08;6.25;;;17.30;99.90;;;;;;5112769;28;20049;-64
2023/10/25 06:50:08;;;;;;;24.20;6.18;;;17.40;99.90;;;;;;5094524;28;20379;-63
2023/10/25 06:52:34;;;;;;;30.60;6.55;;;17.40;99.90;;;;;;5112594;28;20457;-64
2023/10/25 06:55:00;;;;;;;28.02;6.60;;;17.30;99.90;;;;;;5112300;28;20114;-63
2023/10/25 06:57:26;;;;;;;29.17;6.43;;;17.30;99.90;;;;;;5112456;28;20027;-64
2023/10/25 06:59:52;;;;;;;27.70;6.65;;;17.10;99.90;;;;;;5112615;28;20032;-63
2023/10/25 07:02:37;;;;;;;26.98;6.53;;;17.00;99.90;;;;;;5112680;28;20031;-63
2023/10/25 07:05:11;;;;;;;30.05;6.57;;;16.90;99.90;;;;;;5112533;28;20073;-63
2023/10/25 07:07:39;;;;;;;27.25;5.95;;;16.90;99.90;;;;;;5112471;28;20027;-63
2023/10/25 07:10:06;;;;;;;30.67;6.57;;;16.80;99.90;;;;;;5112583;28;20530;-64
2023/10/25 07:12:32;;;;;;;31.00;6.35;;;16.80;99.90;;;;;;5112616;28;20492;-63
2023/10/25 07:14:58;;;;;;;28.77;6.07;;;16.80;99.90;;;;;;5111912;28;20089;-63
2023/10/25 07:17:24;;;;;;;29.15;6.35;;;16.80;99.90;;;;;;5111851;28;20499;-63
2023/10/25 07:19:50;;;;;;;30.77;6.25;;;16.80;99.90;;;;;;5112122;28;20413;-64
2023/10/25 07:22:15;;;;;;;32.10;7.25;;;16.80;99.90;;;;;;5093880;28;20081;-64
2023/10/25 07:24:41;;;;;;;33.88;7.30;;;16.80;99.90;;;;;;5112453;28;20032;-64
2023/10/25 07:27:07;;;;;;;20.20;5.15;;;16.80;99.90;;;;;;5112005;28;20123;-64
2023/10/25 07:29:36;;;;;;;24.02;5.15;;;16.80;99.90;;;;;;5111507;28;20043;-64
2023/10/25 07:32:05;;;;;;;24.48;5.50;;;16.80;99.90;;;;;;5112062;28;20028;-63
2023/10/25 07:34:31;;;;;;;24.33;5.38;;;16.80;99.90;;;;;;5111974;28;20141;-63
2023/10/25 07:36:56;;;;;;;26.52;5.93;;;16.80;99.90;;;;;;5112274;28;20098;-63
2023/10/25 07:39:22;;;;;;;25.63;6.32;;;16.80;99.90;;;;;;5111810;28;20467;-63
2023/10/25 07:41:48;;;;;;;28.40;6.68;;;16.80;99.90;;;;;;5111781;28;20024;-63
2023/10/25 07:44:13;;;;;;;28.98;6.10;;;16.90;99.90;;;;;;5111582;28;20072;-63
2023/10/25 07:46:39;;;;;;;21.98;5.38;;;16.90;99.90;;;;;;5112247;28;20107;-64
2023/10/25 07:49:05;;;;;;;22.70;6.13;;;17.00;99.90;;;;;;5111759;28;20046;-63
2023/10/25 07:51:31;;;;;;;20.73;5.38;;;17.00;99.90;;;;;;5093474;28;20020;-63
2023/10/25 07:53:56;;;;;;;22.40;5.45;;;17.00;99.90;;;;;;5111682;28;20081;-63
2023/10/25 07:56:23;;;;;;;20.27;5.68;;;17.00;99.90;;;;;;5111620;28;20020;-64
2023/10/25 07:58:50;;;;;;;22.83;5.45;;;16.90;99.90;;;;;;5111304;28;20036;-64
2023/10/25 08:01:15;;;;;;;22.20;5.15;;;16.90;99.90;;;;;;5111948;28;20423;-64
2023/10/25 08:03:41;;;;;;;20.80;4.90;;;17.00;99.90;;;;;;5111635;28;20030;-64
2023/10/25 08:06:07;;;;;;;15.65;4.07;;;17.10;99.90;;;;;;5111624;28;20023;-65
2023/10/25 08:08:33;;;;;;;12.32;3.53;;;17.20;99.90;;;;;;5111939;28;20034;-64
2023/10/25 08:11:03;;;;;;;12.98;3.58;;;17.20;99.90;;;;;;5111516;28;20019;-64
2023/10/25 08:13:34;;;;;;;19.13;4.45;;;17.30;99.90;;;;;;5111067;28;20501;-63
2023/10/25 08:16:01;;;;;;;19.67;4.97;;;17.30;99.90;;;;;;5111604;28;20072;-63
2023/10/25 08:18:28;;;;;;;20.55;5.10;;;17.40;99.90;;;;;;5111299;28;20039;-64
2023/10/25 08:20:55;;;;;;;23.40;5.07;;;17.40;99.90;;;;;;5111808;28;20039;-64
2023/10/25 08:23:21;;;;;;;28.35;6.20;;;17.40;99.90;;;;;;5111332;28;20035;-64
2023/10/25 08:25:46;;;;;;;28.05;6.82;;;17.30;99.90;;;;;;5111230;28;20031;-64
2023/10/25 08:28:12;;;;;;;18.73;4.30;;;17.50;99.90;;;;;;5111867;28;20044;-64
2023/10/25 08:30:38;;;;;;;15.40;4.32;;;17.50;99.90;;;;;;5116067;28;20035;-64
2023/10/25 08:33:03;;;;;;;17.80;5.07;;;17.30;99.90;;;;;;5115027;28;20485;-64
2023/10/25 08:35:29;;;;;;;23.88;5.60;;;17.40;99.90;;;;;;5115971;28;20028;-63
2023/10/25 08:37:55;;;;;;;25.75;5.65;;;17.40;99.90;;;;;;5115187;28;20031;-64
2023/10/25 08:40:20;;;;;;;29.52;6.90;;;17.30;99.90;;;;;;5115427;28;20401;-64
2023/10/25 08:42:46;;;;;;;28.95;6.18;;;17.20;99.90;;;;;;5115124;28;20385;-63
2023/10/25 08:45:15;;;;;;;24.90;5.80;;;17.20;99.90;;;;;;5115241;28;20019;-64
2023/10/25 08:47:41;;;;;;;22.63;5.53;;;17.20;99.90;;;;;;5115207;28;20024;-63
2023/10/25 08:50:07;;;;;;;28.52;6.40;;;17.10;99.90;;;;;;5115496;28;20035;-63
2023/10/25 08:52:37;;;;;;;28.90;7.07;;;17.20;99.90;;;;;;5114974;28;20445;-64
2023/10/25 08:55:06;;;;;;;25.00;6.20;;;17.10;99.90;;;;;;5115135;28;20494;-63
2023/10/25 08:57:32;;;;;;;27.95;6.47;;;17.10;99.90;;;;;;5115112;28;20030;-63
2023/10/25 08:59:57;;;;;;;28.90;6.60;;;17.10;99.90;;;;;;5115019;28;20102;-64
2023/10/25 09:02:23;;;;;;;31.33;6.63;;;17.00;99.90;;;;;;5114945;28;20039;-64
2023/10/25 09:04:59;;;;;;;25.00;6.45;;;17.00;99.90;;;;;;5114919;28;20081;-64
2023/10/25 09:07:30;;;;;;;24.75;5.75;;;16.90;99.90;;;;;;5114959;28;20057;-64
2023/10/25 09:09:56;;;;;;;20.33;5.18;;;16.90;99.90;;;;;;5114417;28;20024;-64
2023/10/25 09:12:23;;;;;;;19.42;5.35;;;16.80;99.90;;;;;;5114805;28;20474;-64
2023/10/25 09:14:49;;;;;;;24.75;5.90;;;16.80;99.90;;;;;;5114693;28;20023;-64
2023/10/25 09:17:15;;;;;;;24.50;5.43;;;16.80;99.90;;;;;;5114986;28;20081;-64
2023/10/25 09:19:45;;;;;;;21.80;5.30;;;16.80;99.90;;;;;;5114305;28;20024;-64
2023/10/25 09:22:28;;;;;;;17.48;4.07;;;16.70;99.90;;;;;;5114705;28;20023;-64
2023/10/25 09:24:55;;;;;;;18.67;3.93;;;16.60;99.90;;;;;;5114276;28;20059;-64
2023/10/25 09:27:22;;;;;;;19.10;3.92;;;16.60;99.90;;;;;;5114954;28;20016;-64
2023/10/25 09:29:49;;;;;;;22.42;5.28;;;16.60;99.90;;;;;;5114291;28;20063;-64
2023/10/25 09:32:14;;;;;;;19.85;4.82;;;16.60;99.90;;;;;;5114452;28;20103;-64
2023/10/25 09:34:41;;;;;;;24.27;5.32;;;16.70;99.90;;;;;;5114292;28;20122;-63
2023/10/25 09:37:06;;;;;;;23.48;5.55;;;16.70;99.90;;;;;;5114192;28;20046;-63
2023/10/25 09:39:35;;;;;;;24.17;5.88;;;16.70;99.90;;;;;;5113314;28;20032;-63
2023/10/25 09:42:04;;;;;;;28.05;5.75;;;16.90;99.90;;;;;;5114198;28;20485;-63
2023/10/25 09:44:37;;;;;;;28.70;5.88;;;17.20;99.90;;;;;;5114119;28;20493;-63
2023/10/25 09:47:08;;;;;;;26.73;6.18;;;17.40;99.90;;;;;;5114257;28;20099;-63
2023/10/25 09:49:36;;;;;;;26.75;6.13;;;17.60;99.90;;;;;;5114327;28;20072;-63
2023/10/25 09:52:06;;;;;;;27.95;6.45;;;17.60;99.90;;;;;;5113940;28;20563;-63
2023/10/25 09:54:32;;;;;;;26.40;6.00;;;17.60;99.90;;;;;;5113585;28;20102;-63
2023/10/25 09:56:59;;;;;;;29.08;6.45;;;17.70;99.90;;;;;;5113921;28;20088;-64
2023/10/25 09:59:26;;;;;;;26.70;6.20;;;17.80;99.90;;;;;;5113934;28;20177;-64
2023/10/25 10:01:54;;;;;;;23.73;5.70;;;17.70;99.90;;;;;;5114003;28;20012;-64
2023/10/25 10:04:27;;;;;;;24.38;5.75;;;17.90;99.90;;;;;;5095769;28;20031;-64
2023/10/25 10:06:59;;;;;;;26.02;5.90;;;17.80;99.90;;;;;;5113657;28;20031;-64
2023/10/25 10:09:47;;;;;;;26.80;5.72;;;17.90;99.90;;;;;;5113223;28;20506;-63
2023/10/25 10:12:13;;;;;;;31.08;6.78;;;17.90;99.90;;;;;;5113575;28;20981;-64
2023/10/25 10:14:39;;;;;;;26.25;6.78;;;18.00;99.90;;;;;;5113603;28;20397;-64
2023/10/25 10:17:06;;;;;;;26.48;7.18;;;17.90;99.90;;;;;;5113637;28;20023;-63
2023/10/25 10:19:33;;;;;;;21.42;5.72;;;17.70;99.90;;;;;;5113343;28;20118;-64
2023/10/25 10:22:18;;;;;;;25.05;6.50;;;17.60;99.90;;;;;;5113010;28;20028;-63
2023/10/25 10:24:53;;;;;;;28.63;6.30;;;17.40;99.90;;;;;;5113405;28;20271;-64
2023/10/25 10:27:20;;;;;;;22.23;5.90;;;17.30;99.90;;;;;;5113664;28;20053;-64
2023/10/25 10:29:47;;;;;;;25.52;5.60;;;17.30;99.90;;;;;;5113159;28;20048;-64
2023/10/25 10:32:14;;;;;;;26.23;5.78;;;17.30;99.90;;;;;;5113157;28;20418;-63
2023/10/25 10:34:49;;;;;;;27.75;6.00;;;17.30;99.90;;;;;;5113059;28;20558;-63
2023/10/25 10:37:25;;;;;;;26.00;5.97;;;17.30;99.90;;;;;;5112649;28;20027;-63
2023/10/25 10:39:57;;;;;;;24.20;6.35;;;17.30;99.90;;;;;;5112931;28;20556;-64
2023/10/25 10:42:29;;;;;;;28.48;6.20;;;17.30;99.90;;;;;;5113367;28;20409;-63
2023/10/25 10:45:02;;;;;;;20.33;5.25;;;17.30;99.90;;;;;;5113154;28;20405;-64
2023/10/25 10:47:31;;;;;;;24.55;5.60;;;17.20;99.90;;;;;;5112803;28;20111;-64
2023/10/25 10:50:07;;;;;;;29.90;6.90;;;17.20;99.90;;;;;;5112496;28;20024;-64
2023/10/25 10:52:33;;;;;;;27.42;6.07;;;17.20;99.90;;;;;;5112228;28;20051;-64
2023/10/25 10:54:59;;;;;;;28.75;6.15;;;17.20;99.90;;;;;;5113118;28;20046;-64
2023/10/25 10:57:26;;;;;;;27.40;6.00;;;17.20;99.90;;;;;;5112671;28;20450;-64
2023/10/25 10:59:51;;;;;;;27.00;6.45;;;17.20;99.90;;;;;;5112532;28;20034;-64
2023/10/25 11:02:18;;;;;;;28.48;7.10;;;17.10;99.90;;;;;;5112909;28;20023;-64
2023/10/25 11:04:44;;;;;;;21.08;5.55;;;17.10;99.90;;;;;;5112476;28;20032;-64
2023/10/25 11:07:09;;;;;;;22.42;5.20;;;17.00;99.90;;;;;;5112144;28;20080;-64
2023/10/25 11:09:35;;;;;;;19.58;4.97;;;16.90;99.90;;;;;;5112314;28;20028;-64
2023/10/25 11:12:09;;;;;;;19.02;4.60;;;16.70;99.90;;;;;;5094368;28;20072;-64
2023/10/25 11:14:47;;;;;;;19.05;5.10;;;16.60;99.90;;;;;;5112354;28;20020;-64
2023/10/25 11:17:13;;;;;;;23.77;5.88;;;16.50;99.90;;;;;;5112351;28;20043;-65
2023/10/25 11:19:40;;;;;;;25.40;6.00;;;16.50;99.90;;;;;;5112561;28;20463;-64
2023/10/25 11:22:06;;;;;;;22.52;4.93;;;16.80;99.90;;;;;;5112138;28;20023;-64
2023/10/25 11:24:35;;;;;;;24.17;6.18;;;17.00;99.90;;;;;;5112052;28;20529;-64
2023/10/25 11:27:02;;;;;;;24.45;6.15;;;17.10;99.90;;;;;;5112090;28;20020;-64
2023/10/25 11:29:30;;;;;;;24.90;6.43;;;17.20;99.90;;;;;;5111965;28;20056;-64
2023/10/25 11:32:00;;;;;;;27.95;6.65;;;17.30;99.90;;;;;;5112305;28;20027;-64
2023/10/25 11:34:30;;;;;;;24.02;6.53;;;17.40;99.90;;;;;;5111679;28;20506;-63
2023/10/25 11:36:56;;;;;;;26.45;6.50;;;17.50;99.90;;;;;;5111983;28;20034;-64
2023/10/25 11:39:21;;;;;;;28.30;6.40;;;17.50;99.90;;;;;;5111952;28;20110;-64
2023/10/25 11:41:47;;;;;;;23.45;5.72;;;17.60;99.90;;;;;;5112530;28;20031;-64
2023/10/25 11:44:19;;;;;;;28.25;6.45;;;17.60;99.90;;;;;;5111987;28;20467;-64
2023/10/25 11:46:45;;;;;;;21.30;5.78;;;17.50;99.90;;;;;;5111433;28;20482;-64
2023/10/25 11:49:11;;;;;;;22.58;5.85;;;17.60;99.90;;;;;;5111822;28;20073;-64
2023/10/25 11:51:37;;;;;;;25.42;6.25;;;17.60;99.90;;;;;;5111737;28;20440;-64
2023/10/25 11:54:04;;;;;;;27.80;7.15;;;17.60;99.90;;;;;;5111808;28;20042;-64
2023/10/25 11:56:30;;;;;;;25.90;6.18;;;17.50;99.90;;;;;;5111725;28;20020;-64
2023/10/25 11:58:56;;;;;;;23.23;6.13;;;17.20;99.90;;;;;;5111840;28;20032;-64
2023/10/25 12:01:21;;;;;;;32.88;7.20;;;17.10;99.90;;;;;;5111542;28;20027;-64
2023/10/25 12:03:47;;;;;;;26.63;6.43;;;17.00;99.90;;;;;;5111437;28;20054;-64
2023/10/25 12:06:13;;;;;;;26.65;6.30;;;16.90;99.90;;;;;;5112014;28;20023;-64
2023/10/25 12:08:40;;;;;;;26.55;6.38;;;16.80;99.90;;;;;;5111611;28;20393;-64
2023/10/25 12:11:10;;;;;;;23.48;6.30;;;16.80;99.90;;;;;;5111593;28;20024;-64
2023/10/25 12:13:39;;;;;;;27.38;6.65;;;16.80;99.90;;;;;;5111435;28;20460;-64
2023/10/25 12:16:06;;;;;;;29.33;7.22;;;16.80;99.90;;;;;;5112011;28;20024;-63
2023/10/25 12:18:37;;;;;;;30.45;6.20;;;16.90;99.90;;;;;;5111111;28;20462;-64
2023/10/25 12:21:03;;;;;;;28.63;6.55;;;16.80;99.90;;;;;;5111277;28;20026;-64
2023/10/25 12:23:30;;;;;;;33.10;6.90;;;16.80;99.90;;;;;;5111278;28;20027;-64
2023/10/25 12:25:55;;;;;;;32.55;7.57;;;16.90;99.90;;;;;;5111502;28;20032;-64
2023/10/25 12:28:21;;;;;;;33.65;7.57;;;16.80;99.90;;;;;;5111211;28;20047;-65
2023/10/25 12:30:47;;;;;;;27.10;6.65;;;16.90;99.90;;;;;;5111164;28;20069;-64
2023/10/25 12:33:13;;;;;;;31.60;7.60;;;16.80;99.90;;;;;;5110988;28;20031;-65
2023/10/25 12:35:39;;;;;;;32.33;7.72;;;16.90;99.90;;;;;;5111144;28;20078;-64
2023/10/25 12:38:04;;;;;;;29.25;6.68;;;16.80;99.90;;;;;;5111148;28;20028;-64